RYR76MK EPWR-LEPA
Flight info
| Callsign | RYR76MK |
|---|---|
| Flight time | 2h 24m |
| Altitude | 38000 |
| Route | ULGIL T707 TOMTI/N0423F380 DCT LEGAZ DCT BUDEX DCT MATIG DCT DETSA/N0424F390 DCT PIDAD DCT TALEP DCT RARQU DCT BALEN/N0378F290 UT250 RIXOT |
| Aircraft | B737/M-SDE2E3FGHIRWXY/LB1 |
Departure
| Time | 2026-05-01 12:41 |
|---|---|
| Airport | Copernicus Wrocław Airport (EPWR) |
Arrival
| Time | 2026-05-01 15:06 |
|---|---|
| Airport | Palma de Mallorca Airport (LEPA) |
| Time | Latitude | Longitude | Altitude | Speed | Heading |
|---|---|---|---|---|---|
| 2026-05-01 12:15 | 51.10901 | 16.87884 | 402 ft | 0 kts | 25° |
| 2026-05-01 12:31 | 51.10897 | 16.87881 | 402 ft | 4 kts | 26° |
| 2026-05-01 12:32 | 51.10875 | 16.87864 | 400 ft | 4 kts | 30° |
| 2026-05-01 12:32 | 51.10847 | 16.87808 | 399 ft | 4 kts | 103° |
| 2026-05-01 12:32 | 51.10849 | 16.87797 | 399 ft | 1 kts | 116° |
| 2026-05-01 12:35 | 51.10840 | 16.87827 | 401 ft | 8 kts | 116° |
| 2026-05-01 12:35 | 51.10815 | 16.87908 | 401 ft | 8 kts | 116° |
| 2026-05-01 12:35 | 51.10793 | 16.87980 | 399 ft | 6 kts | 116° |
| 2026-05-01 12:36 | 51.10775 | 16.88037 | 401 ft | 5 kts | 116° |
| 2026-05-01 12:36 | 51.10762 | 16.88078 | 399 ft | 3 kts | 116° |
| 2026-05-01 12:36 | 51.10757 | 16.88094 | 401 ft | 0 kts | 116° |
| 2026-05-01 12:38 | 51.10755 | 16.88100 | 410 ft | 3 kts | 116° |
| 2026-05-01 12:38 | 51.10730 | 16.88180 | 401 ft | 14 kts | 116° |
| 2026-05-01 12:38 | 51.10673 | 16.88369 | 402 ft | 24 kts | 115° |
| 2026-05-01 12:38 | 51.10586 | 16.88653 | 401 ft | 32 kts | 116° |
| 2026-05-01 12:39 | 51.10488 | 16.88976 | 400 ft | 33 kts | 116° |
| 2026-05-01 12:39 | 51.10387 | 16.89305 | 400 ft | 33 kts | 116° |
| 2026-05-01 12:39 | 51.10286 | 16.89640 | 401 ft | 34 kts | 116° |
| 2026-05-01 12:39 | 51.10200 | 16.89922 | 400 ft | 19 kts | 115° |
| 2026-05-01 12:40 | 51.10092 | 16.89950 | 401 ft | 19 kts | 210° |
| 2026-05-01 12:40 | 51.09981 | 16.89847 | 400 ft | 18 kts | 210° |
| 2026-05-01 12:40 | 51.09920 | 16.89711 | 399 ft | 16 kts | 295° |
| 2026-05-01 12:40 | 51.09995 | 16.89469 | 404 ft | 52 kts | 296° |
| 2026-05-01 12:41 | 51.10272 | 16.88577 | 402 ft | 124 kts | 296° |
| 2026-05-01 12:41 | 51.10701 | 16.87112 | 652 ft | 162 kts | 295° |
| 2026-05-01 12:41 | 51.11132 | 16.85287 | 1291 ft | 184 kts | 295° |
| 2026-05-01 12:41 | 51.11663 | 16.83435 | 2214 ft | 188 kts | 298° |
| 2026-05-01 12:42 | 51.12258 | 16.81523 | 3031 ft | 205 kts | 300° |
| 2026-05-01 12:42 | 51.12718 | 16.79213 | 3692 ft | 233 kts | 275° |
| 2026-05-01 12:42 | 51.12379 | 16.76627 | 4692 ft | 245 kts | 245° |
| 2026-05-01 12:42 | 51.11255 | 16.74624 | 5900 ft | 246 kts | 213° |
| 2026-05-01 12:43 | 51.09624 | 16.73516 | 6691 ft | 261 kts | 201° |
| 2026-05-01 12:43 | 51.08125 | 16.71929 | 7600 ft | 266 kts | 232° |
| 2026-05-01 12:43 | 51.07178 | 16.69344 | 8426 ft | 269 kts | 246° |
| 2026-05-01 12:43 | 51.06376 | 16.66712 | 9465 ft | 273 kts | 245° |
| 2026-05-01 12:44 | 51.05444 | 16.63855 | 9465 ft | 303 kts | 243° |
| 2026-05-01 12:44 | 51.04395 | 16.60919 | 9416 ft | 307 kts | 241° |
| 2026-05-01 12:44 | 51.02165 | 16.55049 | 9877 ft | 315 kts | 240° |
| 2026-05-01 12:45 | 51.00833 | 16.48472 | 11236 ft | 333 kts | 280° |
| 2026-05-01 12:45 | 51.01149 | 16.46080 | 11680 ft | 336 kts | 289° |
| 2026-05-01 12:45 | 51.01833 | 16.42487 | 12474 ft | 343 kts | 292° |
| 2026-05-01 12:46 | 51.02582 | 16.38858 | 13359 ft | 348 kts | 293° |
| 2026-05-01 12:46 | 51.03348 | 16.35172 | 14244 ft | 354 kts | 293° |
| 2026-05-01 12:46 | 51.04115 | 16.31423 | 15081 ft | 359 kts | 293° |
| 2026-05-01 12:46 | 51.04879 | 16.27620 | 15968 ft | 363 kts | 292° |
| 2026-05-01 12:47 | 51.05644 | 16.23768 | 16811 ft | 369 kts | 292° |
| 2026-05-01 12:47 | 51.06416 | 16.19848 | 17661 ft | 374 kts | 292° |
| 2026-05-01 12:47 | 51.07187 | 16.15913 | 18537 ft | 379 kts | 292° |
| 2026-05-01 12:47 | 51.07974 | 16.11889 | 19324 ft | 383 kts | 292° |
| 2026-05-01 12:48 | 51.08764 | 16.07828 | 20136 ft | 386 kts | 292° |
| 2026-05-01 12:48 | 51.09479 | 16.03682 | 20930 ft | 395 kts | 282° |
| 2026-05-01 12:48 | 51.09420 | 15.99249 | 21695 ft | 409 kts | 261° |
| 2026-05-01 12:48 | 51.08638 | 15.94869 | 22521 ft | 413 kts | 255° |
| 2026-05-01 12:49 | 51.07742 | 15.90496 | 23262 ft | 418 kts | 254° |
| 2026-05-01 12:49 | 51.06814 | 15.86081 | 23964 ft | 424 kts | 254° |
| 2026-05-01 12:49 | 51.05881 | 15.81609 | 24571 ft | 427 kts | 254° |
| 2026-05-01 12:49 | 51.04957 | 15.77110 | 25231 ft | 428 kts | 254° |
| 2026-05-01 12:50 | 51.04044 | 15.72609 | 25970 ft | 428 kts | 255° |
| 2026-05-01 12:50 | 51.03135 | 15.68088 | 26589 ft | 432 kts | 255° |
| 2026-05-01 12:50 | 51.02219 | 15.63516 | 27166 ft | 436 kts | 255° |
| 2026-05-01 12:50 | 51.01295 | 15.58912 | 27732 ft | 440 kts | 255° |
| 2026-05-01 12:51 | 51.00362 | 15.54272 | 28309 ft | 443 kts | 255° |
| 2026-05-01 12:51 | 50.99420 | 15.49603 | 28866 ft | 446 kts | 255° |
| 2026-05-01 12:51 | 50.97510 | 15.40160 | 29956 ft | 452 kts | 255° |
| 2026-05-01 12:52 | 50.96549 | 15.35453 | 30463 ft | 456 kts | 254° |
| 2026-05-01 12:52 | 50.93587 | 15.26388 | 31298 ft | 467 kts | 234° |
| 2026-05-01 12:52 | 50.91488 | 15.22511 | 31685 ft | 470 kts | 228° |
| 2026-05-01 12:53 | 50.86961 | 15.15067 | 32809 ft | 465 kts | 227° |
| 2026-05-01 12:53 | 50.84714 | 15.11390 | 33398 ft | 462 kts | 227° |
| 2026-05-01 12:53 | 50.82492 | 15.07712 | 33926 ft | 461 kts | 227° |
| 2026-05-01 12:54 | 50.80314 | 15.04073 | 34332 ft | 462 kts | 227° |
| 2026-05-01 12:54 | 50.75914 | 14.96679 | 35086 ft | 461 kts | 228° |
| 2026-05-01 12:54 | 50.73725 | 14.93001 | 35518 ft | 458 kts | 227° |
| 2026-05-01 12:55 | 50.69349 | 14.85694 | 36259 ft | 457 kts | 226° |
| 2026-05-01 12:55 | 50.66931 | 14.82448 | 36576 ft | 458 kts | 213° |
| 2026-05-01 12:55 | 50.64135 | 14.80047 | 36944 ft | 457 kts | 202° |
| 2026-05-01 12:56 | 50.61114 | 14.78518 | 37263 ft | 455 kts | 190° |
| 2026-05-01 12:56 | 50.57997 | 14.77606 | 37539 ft | 456 kts | 188° |
| 2026-05-01 12:56 | 50.54872 | 14.76789 | 37846 ft | 455 kts | 187° |
| 2026-05-01 12:56 | 50.51747 | 14.75993 | 38191 ft | 454 kts | 188° |
| 2026-05-01 12:57 | 50.48623 | 14.75188 | 38403 ft | 457 kts | 188° |
| 2026-05-01 12:57 | 50.39196 | 14.72641 | 38361 ft | 457 kts | 188° |
| 2026-05-01 12:58 | 50.32974 | 14.70909 | 38370 ft | 452 kts | 188° |
| 2026-05-01 12:59 | 50.23684 | 14.68330 | 38397 ft | 452 kts | 188° |
| 2026-05-01 12:59 | 50.14387 | 14.65761 | 38405 ft | 452 kts | 188° |
| 2026-05-01 13:00 | 50.05078 | 14.63201 | 38405 ft | 453 kts | 188° |
| 2026-05-01 13:01 | 49.95793 | 14.60659 | 38397 ft | 454 kts | 188° |
| 2026-05-01 13:02 | 49.86443 | 14.58107 | 38371 ft | 455 kts | 188° |
| 2026-05-01 13:07 | 49.17699 | 14.39649 | 38382 ft | 458 kts | 187° |
| 2026-05-01 13:08 | 49.11418 | 14.37986 | 38380 ft | 458 kts | 187° |
| 2026-05-01 13:08 | 49.05134 | 14.36325 | 38379 ft | 458 kts | 187° |
| 2026-05-01 13:09 | 48.98855 | 14.34672 | 38380 ft | 458 kts | 187° |
| 2026-05-01 13:09 | 48.92760 | 14.31848 | 38382 ft | 460 kts | 206° |
| 2026-05-01 13:10 | 48.87224 | 14.26941 | 38372 ft | 461 kts | 211° |
| 2026-05-01 13:10 | 48.81762 | 14.21847 | 38387 ft | 460 kts | 211° |
| 2026-05-01 13:11 | 48.76319 | 14.16844 | 38373 ft | 460 kts | 210° |
| 2026-05-01 13:11 | 48.70828 | 14.11866 | 38356 ft | 460 kts | 210° |
| 2026-05-01 13:12 | 48.65326 | 14.06908 | 38385 ft | 460 kts | 210° |
| 2026-05-01 13:12 | 48.59817 | 14.01957 | 38368 ft | 460 kts | 210° |
| 2026-05-01 13:13 | 48.54308 | 13.97016 | 38348 ft | 460 kts | 210° |
| 2026-05-01 13:13 | 48.48803 | 13.92091 | 38361 ft | 460 kts | 210° |
| 2026-05-01 13:14 | 48.43337 | 13.87210 | 38367 ft | 459 kts | 210° |
| 2026-05-01 13:14 | 48.37835 | 13.82312 | 38367 ft | 459 kts | 210° |
| 2026-05-01 13:15 | 48.32336 | 13.77428 | 38365 ft | 459 kts | 210° |
| 2026-05-01 13:15 | 48.26837 | 13.72556 | 38366 ft | 459 kts | 210° |
| 2026-05-01 13:16 | 48.21335 | 13.67693 | 38361 ft | 458 kts | 210° |
| 2026-05-01 13:16 | 48.15842 | 13.62848 | 38366 ft | 458 kts | 210° |
| 2026-05-01 13:17 | 48.04864 | 13.53127 | 38355 ft | 458 kts | 212° |
| 2026-05-01 13:18 | 47.97009 | 13.45084 | 38352 ft | 457 kts | 215° |
| 2026-05-01 13:18 | 47.91794 | 13.39646 | 38345 ft | 458 kts | 214° |
| 2026-05-01 13:19 | 47.86556 | 13.34245 | 38346 ft | 458 kts | 214° |
| 2026-05-01 13:20 | 47.78709 | 13.26223 | 38333 ft | 458 kts | 214° |
| 2026-05-01 13:20 | 47.73443 | 13.20861 | 38332 ft | 458 kts | 214° |
| 2026-05-01 13:21 | 47.65546 | 13.12843 | 38318 ft | 458 kts | 214° |
| 2026-05-01 13:21 | 47.60285 | 13.07517 | 38316 ft | 458 kts | 214° |
| 2026-05-01 13:22 | 47.55014 | 13.02194 | 38316 ft | 458 kts | 214° |
| 2026-05-01 13:22 | 47.49746 | 12.96887 | 38324 ft | 458 kts | 214° |
| 2026-05-01 13:23 | 47.44480 | 12.91596 | 38290 ft | 458 kts | 214° |
| 2026-05-01 13:23 | 47.39239 | 12.86342 | 38311 ft | 454 kts | 214° |
| 2026-05-01 13:24 | 47.34006 | 12.81108 | 38300 ft | 454 kts | 214° |
| 2026-05-01 13:25 | 47.26185 | 12.73311 | 38314 ft | 454 kts | 214° |
| 2026-05-01 13:25 | 47.20939 | 12.68097 | 38305 ft | 455 kts | 214° |
| 2026-05-01 13:26 | 47.15690 | 12.62892 | 38315 ft | 454 kts | 214° |
| 2026-05-01 13:26 | 47.10477 | 12.57734 | 38301 ft | 455 kts | 214° |
| 2026-05-01 13:27 | 47.05215 | 12.52541 | 38299 ft | 456 kts | 214° |
| 2026-05-01 13:27 | 46.97286 | 12.44739 | 38289 ft | 459 kts | 214° |
| 2026-05-01 13:28 | 46.89329 | 12.36933 | 38311 ft | 459 kts | 214° |
| 2026-05-01 13:29 | 46.78787 | 12.26468 | 38320 ft | 459 kts | 219° |
| 2026-05-01 13:30 | 46.68785 | 12.14332 | 38835 ft | 471 kts | 221° |
| 2026-05-01 13:31 | 46.63779 | 12.08229 | 39288 ft | 470 kts | 221° |
| 2026-05-01 13:32 | 46.51165 | 11.93107 | 39286 ft | 464 kts | 221° |
| 2026-05-01 13:33 | 46.38788 | 11.78377 | 39296 ft | 460 kts | 221° |
| 2026-05-01 13:34 | 46.28881 | 11.66649 | 39309 ft | 460 kts | 221° |
| 2026-05-01 13:35 | 46.22262 | 11.58844 | 39313 ft | 463 kts | 221° |
| 2026-05-01 13:36 | 46.14744 | 11.50010 | 39321 ft | 466 kts | 221° |
| 2026-05-01 13:36 | 46.07168 | 11.41141 | 39332 ft | 468 kts | 220° |
| 2026-05-01 13:37 | 46.02134 | 11.35265 | 39326 ft | 469 kts | 220° |
| 2026-05-01 13:37 | 45.97054 | 11.29351 | 39347 ft | 470 kts | 221° |
| 2026-05-01 13:38 | 45.89430 | 11.20501 | 39345 ft | 469 kts | 221° |
| 2026-05-01 13:39 | 45.84349 | 11.14621 | 39343 ft | 469 kts | 221° |
| 2026-05-01 13:39 | 45.79271 | 11.08759 | 39345 ft | 468 kts | 221° |
| 2026-05-01 13:40 | 45.74207 | 11.02926 | 39338 ft | 466 kts | 221° |
| 2026-05-01 13:40 | 45.69159 | 10.97127 | 39348 ft | 465 kts | 221° |
| 2026-05-01 13:41 | 45.64124 | 10.91355 | 39350 ft | 462 kts | 221° |
| 2026-05-01 13:41 | 45.59107 | 10.85618 | 39350 ft | 461 kts | 221° |
| 2026-05-01 13:42 | 45.54098 | 10.79903 | 39337 ft | 461 kts | 221° |
| 2026-05-01 13:42 | 45.49127 | 10.74245 | 39346 ft | 459 kts | 221° |
| 2026-05-01 13:43 | 45.44135 | 10.68577 | 39362 ft | 459 kts | 221° |
| 2026-05-01 13:43 | 45.39146 | 10.62924 | 39354 ft | 458 kts | 221° |
| 2026-05-01 13:44 | 45.34154 | 10.57282 | 39350 ft | 458 kts | 221° |
| 2026-05-01 13:44 | 45.29156 | 10.51646 | 39353 ft | 458 kts | 221° |
| 2026-05-01 13:45 | 45.24161 | 10.46026 | 39352 ft | 458 kts | 221° |
| 2026-05-01 13:45 | 45.19197 | 10.40454 | 39350 ft | 458 kts | 221° |
| 2026-05-01 13:46 | 45.14201 | 10.34859 | 39349 ft | 457 kts | 221° |
| 2026-05-01 13:46 | 45.09211 | 10.29284 | 39355 ft | 457 kts | 221° |
| 2026-05-01 13:47 | 45.04218 | 10.23719 | 39353 ft | 456 kts | 221° |
| 2026-05-01 13:47 | 44.99229 | 10.18169 | 39366 ft | 456 kts | 221° |
| 2026-05-01 13:48 | 44.94233 | 10.12626 | 39365 ft | 456 kts | 221° |
| 2026-05-01 13:48 | 44.89274 | 10.07135 | 39366 ft | 456 kts | 221° |
| 2026-05-01 13:49 | 44.84278 | 10.01616 | 39367 ft | 456 kts | 221° |
| 2026-05-01 13:49 | 44.79280 | 9.96107 | 39347 ft | 456 kts | 221° |
| 2026-05-01 13:50 | 44.74281 | 9.90610 | 39348 ft | 456 kts | 222° |
| 2026-05-01 13:50 | 44.69269 | 9.85110 | 39330 ft | 457 kts | 221° |
| 2026-05-01 13:51 | 44.64247 | 9.79612 | 39334 ft | 457 kts | 221° |
| 2026-05-01 13:51 | 44.59218 | 9.74119 | 39333 ft | 459 kts | 221° |
| 2026-05-01 13:52 | 44.54174 | 9.68621 | 39319 ft | 460 kts | 221° |
| 2026-05-01 13:52 | 44.49149 | 9.63157 | 39325 ft | 460 kts | 221° |
| 2026-05-01 13:53 | 44.44084 | 9.57662 | 39323 ft | 461 kts | 221° |
| 2026-05-01 13:53 | 44.36459 | 9.49413 | 39310 ft | 462 kts | 221° |
| 2026-05-01 13:54 | 44.31371 | 9.43924 | 39288 ft | 462 kts | 220° |
| 2026-05-01 13:54 | 44.26288 | 9.38453 | 39301 ft | 461 kts | 220° |
| 2026-05-01 13:55 | 44.21206 | 9.32995 | 39294 ft | 461 kts | 220° |
| 2026-05-01 13:55 | 44.16156 | 9.27582 | 39298 ft | 461 kts | 220° |
| 2026-05-01 13:56 | 44.11065 | 9.22138 | 39296 ft | 461 kts | 220° |
| 2026-05-01 13:56 | 44.05977 | 9.16710 | 39295 ft | 460 kts | 220° |
| 2026-05-01 13:57 | 44.00892 | 9.11297 | 39295 ft | 460 kts | 220° |
| 2026-05-01 13:57 | 43.95809 | 9.05896 | 39291 ft | 459 kts | 220° |
| 2026-05-01 13:58 | 43.90765 | 9.00551 | 39296 ft | 458 kts | 220° |
| 2026-05-01 13:58 | 43.85701 | 8.95193 | 39299 ft | 458 kts | 220° |
| 2026-05-01 13:59 | 43.80640 | 8.89851 | 39299 ft | 457 kts | 220° |
| 2026-05-01 13:59 | 43.75578 | 8.84517 | 39299 ft | 456 kts | 220° |
| 2026-05-01 14:00 | 43.70525 | 8.79200 | 39303 ft | 456 kts | 220° |
| 2026-05-01 14:00 | 43.65413 | 8.74005 | 39299 ft | 459 kts | 212° |
| 2026-05-01 14:01 | 43.62492 | 8.72173 | 39312 ft | 463 kts | 200° |
| 2026-05-01 14:01 | 43.59347 | 8.71159 | 39294 ft | 467 kts | 188° |
| 2026-05-01 14:01 | 43.52832 | 8.71111 | 39304 ft | 469 kts | 180° |
| 2026-05-01 14:02 | 43.46459 | 8.70047 | 39308 ft | 459 kts | 205° |
| 2026-05-01 14:02 | 43.43682 | 8.68082 | 39304 ft | 452 kts | 218° |
| 2026-05-01 14:02 | 43.41279 | 8.65354 | 39318 ft | 446 kts | 226° |
| 2026-05-01 14:03 | 43.36706 | 8.59562 | 39308 ft | 448 kts | 226° |
| 2026-05-01 14:03 | 43.32089 | 8.53795 | 39300 ft | 449 kts | 226° |
| 2026-05-01 14:04 | 43.27441 | 8.48055 | 39292 ft | 450 kts | 226° |
| 2026-05-01 14:04 | 43.23564 | 8.43291 | 39293 ft | 450 kts | 226° |
| 2026-05-01 14:05 | 43.18100 | 8.36592 | 39293 ft | 451 kts | 226° |
| 2026-05-01 14:05 | 43.13416 | 8.30862 | 39293 ft | 450 kts | 226° |
| 2026-05-01 14:06 | 43.08768 | 8.25187 | 39294 ft | 449 kts | 226° |
| 2026-05-01 14:06 | 43.04111 | 8.19511 | 39280 ft | 448 kts | 226° |
| 2026-05-01 14:07 | 42.99456 | 8.13852 | 39292 ft | 447 kts | 226° |
| 2026-05-01 14:08 | 42.92501 | 8.05416 | 39279 ft | 445 kts | 226° |
| 2026-05-01 14:08 | 42.87876 | 7.99820 | 39278 ft | 444 kts | 226° |
| 2026-05-01 14:09 | 42.83260 | 7.94248 | 39280 ft | 443 kts | 225° |
| 2026-05-01 14:09 | 42.78653 | 7.88698 | 39275 ft | 442 kts | 225° |
| 2026-05-01 14:10 | 42.74071 | 7.83190 | 39271 ft | 441 kts | 225° |
| 2026-05-01 14:10 | 42.69476 | 7.77677 | 39274 ft | 441 kts | 225° |
| 2026-05-01 14:11 | 42.64873 | 7.72166 | 39277 ft | 440 kts | 225° |
| 2026-05-01 14:11 | 42.57974 | 7.63926 | 39269 ft | 440 kts | 225° |
| 2026-05-01 14:12 | 42.53364 | 7.58435 | 39268 ft | 440 kts | 225° |
| 2026-05-01 14:12 | 42.48761 | 7.52963 | 39270 ft | 440 kts | 224° |
| 2026-05-01 14:13 | 42.44936 | 7.48425 | 39266 ft | 440 kts | 224° |
| 2026-05-01 14:13 | 42.39587 | 7.42091 | 39266 ft | 439 kts | 224° |
| 2026-05-01 14:14 | 42.34981 | 7.36648 | 39265 ft | 439 kts | 224° |
| 2026-05-01 14:14 | 42.30383 | 7.31226 | 39265 ft | 438 kts | 224° |
| 2026-05-01 14:15 | 42.25786 | 7.25815 | 39262 ft | 438 kts | 224° |
| 2026-05-01 14:15 | 42.21192 | 7.20417 | 39264 ft | 438 kts | 224° |
| 2026-05-01 14:16 | 42.16593 | 7.15025 | 39264 ft | 437 kts | 224° |
| 2026-05-01 14:16 | 42.12029 | 7.09683 | 39267 ft | 437 kts | 224° |
| 2026-05-01 14:17 | 42.07433 | 7.04311 | 39264 ft | 437 kts | 224° |
| 2026-05-01 14:17 | 42.02835 | 6.98952 | 39264 ft | 437 kts | 224° |
| 2026-05-01 14:18 | 41.98295 | 6.93517 | 39261 ft | 436 kts | 225° |
| 2026-05-01 14:18 | 41.94575 | 6.88930 | 39268 ft | 436 kts | 225° |
| 2026-05-01 14:19 | 41.89344 | 6.82481 | 39260 ft | 436 kts | 225° |
| 2026-05-01 14:19 | 41.84884 | 6.77017 | 39267 ft | 436 kts | 224° |
| 2026-05-01 14:20 | 41.78150 | 6.68806 | 39264 ft | 436 kts | 224° |
| 2026-05-01 14:21 | 41.73653 | 6.63338 | 39266 ft | 436 kts | 224° |
| 2026-05-01 14:21 | 41.69161 | 6.57885 | 39266 ft | 435 kts | 224° |
| 2026-05-01 14:22 | 41.62456 | 6.49767 | 39268 ft | 435 kts | 224° |
| 2026-05-01 14:22 | 41.57973 | 6.44352 | 39261 ft | 434 kts | 224° |
| 2026-05-01 14:23 | 41.53493 | 6.38951 | 39267 ft | 434 kts | 224° |
| 2026-05-01 14:23 | 41.49006 | 6.33553 | 39261 ft | 433 kts | 224° |
| 2026-05-01 14:24 | 41.44525 | 6.28172 | 39263 ft | 433 kts | 224° |
| 2026-05-01 14:24 | 41.40047 | 6.22805 | 39264 ft | 433 kts | 224° |
| 2026-05-01 14:25 | 41.35595 | 6.17478 | 39263 ft | 432 kts | 224° |
| 2026-05-01 14:25 | 41.31121 | 6.12136 | 39256 ft | 432 kts | 224° |
| 2026-05-01 14:26 | 41.24414 | 6.04146 | 39259 ft | 431 kts | 224° |
| 2026-05-01 14:27 | 41.20700 | 5.99732 | 39255 ft | 430 kts | 224° |
| 2026-05-01 14:27 | 41.16244 | 5.94446 | 39261 ft | 429 kts | 224° |
| 2026-05-01 14:28 | 41.09572 | 5.86546 | 39247 ft | 427 kts | 224° |
| 2026-05-01 14:28 | 41.05145 | 5.81315 | 39249 ft | 426 kts | 224° |
| 2026-05-01 14:29 | 41.00726 | 5.76099 | 39247 ft | 425 kts | 224° |
| 2026-05-01 14:30 | 40.94213 | 5.68164 | 39101 ft | 424 kts | 231° |
| 2026-05-01 14:30 | 40.92424 | 5.65044 | 38562 ft | 425 kts | 236° |
| 2026-05-01 14:30 | 40.90734 | 5.61861 | 37992 ft | 420 kts | 236° |
| 2026-05-01 14:31 | 40.87473 | 5.55645 | 37133 ft | 408 kts | 236° |
| 2026-05-01 14:31 | 40.85859 | 5.52592 | 36668 ft | 403 kts | 236° |
| 2026-05-01 14:31 | 40.84256 | 5.49581 | 36267 ft | 398 kts | 236° |
| 2026-05-01 14:31 | 40.82665 | 5.46606 | 35808 ft | 394 kts | 236° |
| 2026-05-01 14:32 | 40.81087 | 5.43667 | 35378 ft | 391 kts | 236° |
| 2026-05-01 14:32 | 40.79516 | 5.40750 | 34946 ft | 388 kts | 236° |
| 2026-05-01 14:32 | 40.77961 | 5.37865 | 34512 ft | 385 kts | 236° |
| 2026-05-01 14:32 | 40.76412 | 5.34996 | 34074 ft | 382 kts | 236° |
| 2026-05-01 14:33 | 40.74876 | 5.32152 | 33608 ft | 379 kts | 236° |
| 2026-05-01 14:33 | 40.73348 | 5.29326 | 33165 ft | 376 kts | 236° |
| 2026-05-01 14:33 | 40.71834 | 5.26529 | 32751 ft | 373 kts | 235° |
| 2026-05-01 14:33 | 40.70331 | 5.23754 | 32338 ft | 371 kts | 235° |
| 2026-05-01 14:34 | 40.68838 | 5.20999 | 31934 ft | 368 kts | 235° |
| 2026-05-01 14:34 | 40.67354 | 5.18264 | 31537 ft | 366 kts | 235° |
| 2026-05-01 14:34 | 40.65876 | 5.15540 | 31101 ft | 365 kts | 235° |
| 2026-05-01 14:34 | 40.64405 | 5.12834 | 30886 ft | 365 kts | 235° |
| 2026-05-01 14:35 | 40.62885 | 5.10037 | 30677 ft | 386 kts | 235° |
| 2026-05-01 14:35 | 40.61283 | 5.07093 | 30458 ft | 404 kts | 235° |
| 2026-05-01 14:35 | 40.59668 | 5.04130 | 30093 ft | 403 kts | 235° |
| 2026-05-01 14:35 | 40.58044 | 5.01155 | 29592 ft | 397 kts | 235° |
| 2026-05-01 14:36 | 40.56443 | 4.98225 | 29062 ft | 392 kts | 235° |
| 2026-05-01 14:36 | 40.54863 | 4.95334 | 28544 ft | 387 kts | 235° |
| 2026-05-01 14:36 | 40.53298 | 4.92473 | 28023 ft | 383 kts | 235° |
| 2026-05-01 14:36 | 40.51749 | 4.89643 | 27496 ft | 380 kts | 235° |
| 2026-05-01 14:37 | 40.50214 | 4.86840 | 26972 ft | 377 kts | 235° |
| 2026-05-01 14:37 | 40.48690 | 4.84056 | 26473 ft | 374 kts | 235° |
| 2026-05-01 14:37 | 40.47173 | 4.81288 | 25972 ft | 371 kts | 235° |
| 2026-05-01 14:37 | 40.45667 | 4.78548 | 25473 ft | 369 kts | 235° |
| 2026-05-01 14:38 | 40.44165 | 4.75819 | 24975 ft | 367 kts | 235° |
| 2026-05-01 14:38 | 40.42666 | 4.73108 | 24475 ft | 366 kts | 235° |
| 2026-05-01 14:38 | 40.41167 | 4.70418 | 23949 ft | 365 kts | 234° |
| 2026-05-01 14:38 | 40.39665 | 4.67730 | 23385 ft | 365 kts | 234° |
| 2026-05-01 14:39 | 40.38178 | 4.65060 | 23023 ft | 359 kts | 234° |
| 2026-05-01 14:39 | 40.36713 | 4.62420 | 22761 ft | 358 kts | 235° |
| 2026-05-01 14:39 | 40.35234 | 4.59747 | 22515 ft | 366 kts | 235° |
| 2026-05-01 14:39 | 40.33727 | 4.57025 | 22245 ft | 371 kts | 234° |
| 2026-05-01 14:40 | 40.32217 | 4.54297 | 21967 ft | 368 kts | 234° |
| 2026-05-01 14:40 | 40.30737 | 4.51627 | 21701 ft | 365 kts | 234° |
| 2026-05-01 14:40 | 40.29233 | 4.48915 | 21436 ft | 362 kts | 234° |
| 2026-05-01 14:40 | 40.27753 | 4.46247 | 21178 ft | 360 kts | 234° |
| 2026-05-01 14:41 | 40.26306 | 4.43641 | 20929 ft | 358 kts | 235° |
| 2026-05-01 14:41 | 40.24845 | 4.41013 | 20675 ft | 356 kts | 234° |
| 2026-05-01 14:41 | 40.23389 | 4.38395 | 20423 ft | 355 kts | 234° |
| 2026-05-01 14:41 | 40.21937 | 4.35786 | 20172 ft | 354 kts | 234° |
| 2026-05-01 14:42 | 40.20490 | 4.33189 | 19911 ft | 354 kts | 234° |
| 2026-05-01 14:42 | 40.19036 | 4.30581 | 19660 ft | 353 kts | 234° |
| 2026-05-01 14:42 | 40.17588 | 4.27987 | 19413 ft | 353 kts | 234° |
| 2026-05-01 14:42 | 40.16139 | 4.25392 | 19162 ft | 353 kts | 234° |
| 2026-05-01 14:43 | 40.14690 | 4.22800 | 18911 ft | 353 kts | 234° |
| 2026-05-01 14:43 | 40.13240 | 4.20210 | 18659 ft | 353 kts | 234° |
| 2026-05-01 14:43 | 40.11789 | 4.17618 | 18401 ft | 353 kts | 234° |
| 2026-05-01 14:43 | 40.10341 | 4.15034 | 18110 ft | 352 kts | 234° |
| 2026-05-01 14:44 | 40.08902 | 4.12468 | 17842 ft | 350 kts | 234° |
| 2026-05-01 14:44 | 40.06038 | 4.07368 | 17328 ft | 346 kts | 234° |
| 2026-05-01 14:44 | 40.04619 | 4.04844 | 17085 ft | 344 kts | 234° |
| 2026-05-01 14:45 | 40.03222 | 4.02362 | 16836 ft | 342 kts | 234° |
| 2026-05-01 14:45 | 40.00417 | 3.97381 | 16350 ft | 339 kts | 234° |
| 2026-05-01 14:45 | 39.99023 | 3.94908 | 16111 ft | 338 kts | 234° |
| 2026-05-01 14:46 | 39.97632 | 3.92443 | 15870 ft | 336 kts | 234° |
| 2026-05-01 14:46 | 39.94868 | 3.87553 | 15389 ft | 334 kts | 234° |
| 2026-05-01 14:46 | 39.93493 | 3.85121 | 15152 ft | 332 kts | 234° |
| 2026-05-01 14:47 | 39.92125 | 3.82705 | 14919 ft | 331 kts | 234° |
| 2026-05-01 14:47 | 39.90760 | 3.80296 | 14684 ft | 330 kts | 234° |
| 2026-05-01 14:47 | 39.89402 | 3.77899 | 14446 ft | 328 kts | 234° |
| 2026-05-01 14:48 | 39.86701 | 3.73140 | 13970 ft | 326 kts | 234° |
| 2026-05-01 14:48 | 39.85357 | 3.70774 | 13716 ft | 324 kts | 234° |
| 2026-05-01 14:48 | 39.82690 | 3.66083 | 13224 ft | 321 kts | 233° |
| 2026-05-01 14:49 | 39.80045 | 3.61439 | 12765 ft | 318 kts | 233° |
| 2026-05-01 14:49 | 39.77438 | 3.56867 | 12315 ft | 315 kts | 233° |
| 2026-05-01 14:50 | 39.75694 | 3.53809 | 12012 ft | 314 kts | 233° |
| 2026-05-01 14:50 | 39.72235 | 3.47756 | 11420 ft | 312 kts | 233° |
| 2026-05-01 14:51 | 39.70935 | 3.45490 | 11195 ft | 312 kts | 233° |
| 2026-05-01 14:51 | 39.68580 | 3.40765 | 10752 ft | 312 kts | 243° |
| 2026-05-01 14:52 | 39.66746 | 3.35767 | 10299 ft | 298 kts | 244° |
| 2026-05-01 14:52 | 39.65869 | 3.33391 | 10165 ft | 285 kts | 244° |
| 2026-05-01 14:52 | 39.64158 | 3.28887 | 9680 ft | 273 kts | 243° |
| 2026-05-01 14:53 | 39.63306 | 3.26676 | 9473 ft | 274 kts | 243° |
| 2026-05-01 14:53 | 39.62450 | 3.24464 | 9280 ft | 275 kts | 242° |
| 2026-05-01 14:53 | 39.61589 | 3.22237 | 9083 ft | 277 kts | 242° |
| 2026-05-01 14:53 | 39.60721 | 3.19999 | 8877 ft | 278 kts | 242° |
| 2026-05-01 14:54 | 39.59846 | 3.17744 | 8534 ft | 281 kts | 242° |
| 2026-05-01 14:54 | 39.58988 | 3.15531 | 8311 ft | 276 kts | 241° |
| 2026-05-01 14:54 | 39.58133 | 3.13326 | 8097 ft | 272 kts | 242° |
| 2026-05-01 14:54 | 39.57281 | 3.11131 | 7906 ft | 273 kts | 241° |
| 2026-05-01 14:55 | 39.56426 | 3.08929 | 7707 ft | 274 kts | 241° |
| 2026-05-01 14:55 | 39.55564 | 3.06712 | 7509 ft | 275 kts | 240° |
| 2026-05-01 14:55 | 39.54704 | 3.04500 | 7314 ft | 275 kts | 241° |
| 2026-05-01 14:55 | 39.53841 | 3.02280 | 7112 ft | 276 kts | 241° |
| 2026-05-01 14:56 | 39.52977 | 3.00060 | 6911 ft | 276 kts | 242° |
| 2026-05-01 14:56 | 39.52113 | 2.97842 | 6707 ft | 276 kts | 242° |
| 2026-05-01 14:56 | 39.51248 | 2.95622 | 6516 ft | 276 kts | 242° |
| 2026-05-01 14:56 | 39.50395 | 2.93434 | 6298 ft | 276 kts | 242° |
| 2026-05-01 14:57 | 39.49533 | 2.91222 | 6079 ft | 275 kts | 241° |
| 2026-05-01 14:57 | 39.47816 | 2.86823 | 5714 ft | 275 kts | 241° |
| 2026-05-01 14:57 | 39.46952 | 2.84610 | 5506 ft | 274 kts | 242° |
| 2026-05-01 14:58 | 39.46101 | 2.82435 | 5281 ft | 269 kts | 242° |
| 2026-05-01 14:58 | 39.45261 | 2.80293 | 5102 ft | 266 kts | 242° |
| 2026-05-01 14:58 | 39.44425 | 2.78161 | 4897 ft | 267 kts | 241° |
| 2026-05-01 14:58 | 39.43606 | 2.76007 | 4705 ft | 267 kts | 247° |
| 2026-05-01 14:59 | 39.43228 | 2.73657 | 4528 ft | 268 kts | 262° |
| 2026-05-01 14:59 | 39.43032 | 2.71256 | 4321 ft | 269 kts | 263° |
| 2026-05-01 14:59 | 39.42833 | 2.68860 | 4132 ft | 268 kts | 263° |
| 2026-05-01 14:59 | 39.42625 | 2.66496 | 3950 ft | 266 kts | 263° |
| 2026-05-01 15:00 | 39.42184 | 2.61741 | 3558 ft | 261 kts | 262° |
| 2026-05-01 15:00 | 39.41965 | 2.59444 | 3367 ft | 253 kts | 262° |
| 2026-05-01 15:00 | 39.41751 | 2.57216 | 3178 ft | 246 kts | 262° |
| 2026-05-01 15:01 | 39.41867 | 2.55062 | 2958 ft | 240 kts | 295° |
| 2026-05-01 15:01 | 39.42894 | 2.53484 | 2839 ft | 226 kts | 330° |
| 2026-05-01 15:01 | 39.44327 | 2.52884 | 2674 ft | 213 kts | 2° |
| 2026-05-01 15:01 | 39.45712 | 2.53287 | 2529 ft | 199 kts | 31° |
| 2026-05-01 15:02 | 39.46743 | 2.54357 | 2405 ft | 183 kts | 54° |
| 2026-05-01 15:02 | 39.46991 | 2.54803 | 2349 ft | 179 kts | 59° |
| 2026-05-01 15:02 | 39.48031 | 2.56931 | 2129 ft | 158 kts | 59° |
| 2026-05-01 15:02 | 39.48620 | 2.58113 | 2037 ft | 156 kts | 60° |
| 2026-05-01 15:03 | 39.49186 | 2.59301 | 1935 ft | 153 kts | 61° |
| 2026-05-01 15:03 | 39.49736 | 2.60470 | 1826 ft | 150 kts | 62° |
| 2026-05-01 15:03 | 39.50278 | 2.61628 | 1675 ft | 152 kts | 61° |
| 2026-05-01 15:03 | 39.50828 | 2.62798 | 1471 ft | 152 kts | 61° |
| 2026-05-01 15:04 | 39.51368 | 2.63947 | 1270 ft | 144 kts | 62° |
| 2026-05-01 15:04 | 39.51875 | 2.65025 | 1083 ft | 136 kts | 61° |
| 2026-05-01 15:04 | 39.52351 | 2.66040 | 903 ft | 129 kts | 61° |
| 2026-05-01 15:04 | 39.52799 | 2.66991 | 749 ft | 122 kts | 63° |
| 2026-05-01 15:05 | 39.53238 | 2.67927 | 625 ft | 123 kts | 61° |
| 2026-05-01 15:05 | 39.53682 | 2.68878 | 414 ft | 123 kts | 61° |
| 2026-05-01 15:05 | 39.54141 | 2.69862 | 262 ft | 129 kts | 59° |
| 2026-05-01 15:05 | 39.54588 | 2.70792 | 111 ft | 113 kts | 62° |
| 2026-05-01 15:06 | 39.54958 | 2.71582 | 35 ft | 88 kts | 57° |
| 2026-05-01 15:06 | 39.55195 | 2.72088 | 37 ft | 45 kts | 58° |
| 2026-05-01 15:06 | 39.55260 | 2.72224 | 37 ft | 6 kts | 58° |
| 2026-05-01 15:06 | 39.55289 | 2.72303 | 37 ft | 14 kts | 89° |
| 2026-05-01 15:07 | 39.55235 | 2.72374 | 37 ft | 12 kts | 144° |
| 2026-05-01 15:07 | 39.55188 | 2.72410 | 37 ft | 2 kts | 149° |
| 2026-05-01 15:07 | 39.55166 | 2.72455 | 37 ft | 11 kts | 83° |
| 2026-05-01 15:07 | 39.55218 | 2.72578 | 37 ft | 20 kts | 57° |
| 2026-05-01 15:08 | 39.55309 | 2.72762 | 36 ft | 28 kts | 58° |
| 2026-05-01 15:08 | 39.55418 | 2.73003 | 37 ft | 34 kts | 59° |
| 2026-05-01 15:08 | 39.55551 | 2.73283 | 36 ft | 39 kts | 58° |
| 2026-05-01 15:08 | 39.55619 | 2.73487 | 37 ft | 20 kts | 121° |
| 2026-05-01 15:09 | 39.55484 | 2.73606 | 36 ft | 28 kts | 149° |
| 2026-05-01 15:09 | 39.55302 | 2.73751 | 37 ft | 32 kts | 148° |
| 2026-05-01 15:09 | 39.55111 | 2.73908 | 37 ft | 32 kts | 147° |
| 2026-05-01 15:09 | 39.54920 | 2.74053 | 36 ft | 33 kts | 150° |
| 2026-05-01 15:10 | 39.54791 | 2.74114 | 37 ft | 17 kts | 211° |
| 2026-05-01 15:10 | 39.54636 | 2.73803 | 37 ft | 24 kts | 236° |
| 2026-05-01 15:10 | 39.54604 | 2.73635 | 37 ft | 17 kts | 329° |
| 2026-05-01 15:11 | 39.54720 | 2.73569 | 37 ft | 12 kts | 328° |
| 2026-05-01 15:11 | 39.54795 | 2.73512 | 37 ft | 8 kts | 343° |
| 2026-05-01 15:11 | 39.54825 | 2.73550 | 37 ft | 3 kts | 60° |
| 2026-05-01 15:12 | 39.54835 | 2.73571 | 37 ft | 0 kts | 59° |